createdAt,value
2019-03-20T00:01:12.319Z,65.10
2019-03-20T00:03:16.015Z,67.30
2019-03-20T00:05:19.671Z,67.00
2019-03-20T00:07:23.334Z,66.10
2019-03-20T00:09:27.126Z,65.90
2019-03-20T00:11:30.791Z,65.40
2019-03-20T00:13:34.478Z,64.70
2019-03-20T00:15:38.130Z,64.00
2019-03-20T00:17:41.786Z,63.70
2019-03-20T00:19:45.582Z,63.60
2019-03-20T00:21:49.271Z,63.50
2019-03-20T00:23:52.972Z,63.40
2019-03-20T00:25:56.636Z,63.30
2019-03-20T00:28:00.417Z,63.20
2019-03-20T00:30:07.059Z,62.90
2019-03-20T00:32:10.710Z,63.50
2019-03-20T00:34:14.423Z,64.70
2019-03-20T00:36:18.079Z,65.00
2019-03-20T00:38:21.744Z,64.80
2019-03-20T00:40:25.422Z,65.70
2019-03-20T00:42:29.093Z,65.60
2019-03-20T00:44:32.836Z,66.70
2019-03-20T00:46:36.581Z,66.40
2019-03-20T00:48:40.242Z,65.90
2019-03-20T00:50:43.907Z,64.70
2019-03-20T00:52:47.634Z,64.00
2019-03-20T00:54:51.315Z,63.50
2019-03-20T00:56:54.965Z,63.30
2019-03-20T00:58:58.621Z,63.20
2019-03-20T01:01:02.336Z,62.80
2019-03-20T01:03:05.974Z,63.30
2019-03-20T01:05:12.882Z,63.60
2019-03-20T01:07:15.253Z,63.00
2019-03-20T01:09:18.901Z,62.90
2019-03-20T01:11:22.575Z,63.30
2019-03-20T01:13:26.256Z,62.90
2019-03-20T01:15:30.010Z,63.40
2019-03-20T01:17:33.664Z,63.40
2019-03-20T01:19:37.514Z,63.60
2019-03-20T01:21:41.209Z,64.30
2019-03-20T01:23:44.870Z,64.10
2019-03-20T01:25:48.560Z,64.30
2019-03-20T01:27:52.215Z,64.20
2019-03-20T01:29:55.874Z,64.30
2019-03-20T01:31:59.547Z,66.10
2019-03-20T01:34:03.334Z,66.10
2019-03-20T01:36:07.026Z,65.90
2019-03-20T01:38:11.282Z,65.80
2019-03-20T01:40:14.939Z,68.00
2019-03-20T01:42:18.629Z,68.10
2019-03-20T01:44:22.295Z,67.60
2019-03-20T01:46:26.019Z,68.30
2019-03-20T01:48:29.663Z,67.40
2019-03-20T01:50:33.487Z,68.50
2019-03-20T01:52:37.162Z,67.90
2019-03-20T01:54:40.824Z,67.20
2019-03-20T01:56:44.521Z,66.70
2019-03-20T01:58:48.182Z,65.90
2019-03-20T02:00:51.848Z,65.60
2019-03-20T02:02:55.549Z,65.20
2019-03-20T02:04:59.203Z,65.20
2019-03-20T02:07:02.880Z,65.20
2019-03-20T02:09:06.931Z,65.30
2019-03-20T02:11:10.587Z,65.10
2019-03-20T02:13:14.282Z,65.30
2019-03-20T02:15:18.756Z,65.30
2019-03-20T02:17:22.454Z,67.40
2019-03-20T02:19:26.103Z,68.10
2019-03-20T02:21:29.754Z,69.20
2019-03-20T02:23:33.438Z,69.50
2019-03-20T02:25:37.094Z,70.40
2019-03-20T02:27:40.978Z,72.70
2019-03-20T02:29:44.769Z,73.30
2019-03-20T02:31:48.430Z,71.90
2019-03-20T02:33:52.131Z,73.20
2019-03-20T02:35:55.883Z,74.70
2019-03-20T02:37:59.661Z,74.40
2019-03-20T02:40:04.838Z,72.60
2019-03-20T02:42:08.506Z,70.60
2019-03-20T02:44:12.200Z,70.00
2019-03-20T02:46:15.866Z,69.60
2019-03-20T02:48:19.563Z,69.90
2019-03-20T02:50:23.237Z,70.20
2019-03-20T02:52:26.897Z,70.30
2019-03-20T02:54:30.576Z,70.90
2019-03-20T02:56:34.231Z,70.00
2019-03-20T02:58:37.921Z,72.10
2019-03-20T03:00:41.687Z,73.50
2019-03-20T03:02:45.420Z,72.70
2019-03-20T03:04:49.163Z,71.90
2019-03-20T03:06:52.821Z,72.00
2019-03-20T03:08:56.479Z,71.60
2019-03-20T03:11:00.170Z,70.70
2019-03-20T03:13:03.823Z,71.40
2019-03-20T03:15:09.702Z,72.10
2019-03-20T03:17:13.480Z,72.00
2019-03-20T03:19:17.136Z,73.10
2019-03-20T03:21:20.811Z,74.90
2019-03-20T03:23:24.464Z,75.00
2019-03-20T03:25:28.142Z,73.70
2019-03-20T03:27:31.873Z,74.20
2019-03-20T03:29:35.642Z,73.00
2019-03-20T03:31:39.515Z,72.50
2019-03-20T03:33:43.415Z,72.40
2019-03-20T03:35:47.090Z,71.10
2019-03-20T03:37:50.761Z,69.90
2019-03-20T03:39:54.423Z,71.60
2019-03-20T03:41:58.151Z,71.80
2019-03-20T03:44:01.818Z,71.40
2019-03-20T03:46:05.504Z,70.80
2019-03-20T03:48:09.191Z,72.10
2019-03-20T03:50:13.151Z,73.30
2019-03-20T03:52:16.845Z,72.30
2019-03-20T03:54:20.502Z,70.60
2019-03-20T03:56:24.206Z,69.20
2019-03-20T03:58:27.857Z,70.00
2019-03-20T04:00:31.556Z,72.50
2019-03-20T04:02:35.210Z,72.10
2019-03-20T04:04:38.870Z,71.60
2019-03-20T04:06:42.551Z,70.90
2019-03-20T04:08:46.226Z,70.70
2019-03-20T04:10:49.912Z,71.60
2019-03-20T04:12:54.119Z,72.70
2019-03-20T04:14:57.780Z,74.90
2019-03-20T04:17:01.479Z,75.60
2019-03-20T04:19:05.136Z,74.70
2019-03-20T04:21:08.820Z,76.40
2019-03-20T04:23:12.510Z,77.80
2019-03-20T04:25:16.477Z,77.70
2019-03-20T04:27:20.203Z,77.50
2019-03-20T04:29:23.903Z,76.00
2019-03-20T04:31:27.571Z,76.00
2019-03-20T04:33:31.243Z,75.40
2019-03-20T04:35:34.913Z,75.00
2019-03-20T04:37:38.605Z,77.80
2019-03-20T04:39:42.295Z,78.50
2019-03-20T04:41:46.002Z,78.30
2019-03-20T04:43:49.775Z,77.80
2019-03-20T04:45:54.262Z,78.90
2019-03-20T04:47:57.965Z,77.30
2019-03-20T04:50:01.613Z,76.70
2019-03-20T04:52:05.361Z,76.00
2019-03-20T04:54:09.166Z,75.20
2019-03-20T04:56:12.832Z,75.60
2019-03-20T04:58:16.512Z,75.30
2019-03-20T05:00:21.068Z,74.60
2019-03-20T05:02:24.730Z,73.70
2019-03-20T05:04:28.423Z,73.00
2019-03-20T05:06:32.077Z,71.60
2019-03-20T05:08:35.763Z,70.60
2019-03-20T05:10:39.578Z,71.30
2019-03-20T05:12:43.448Z,72.70
2019-03-20T05:14:47.111Z,74.60
2019-03-20T05:16:50.806Z,76.20
2019-03-20T05:18:54.494Z,75.40
2019-03-20T05:20:58.371Z,74.70
2019-03-20T05:23:02.634Z,74.10
2019-03-20T05:25:06.840Z,72.80
2019-03-20T05:27:10.513Z,72.30
2019-03-20T05:29:14.192Z,73.60
2019-03-20T05:31:17.980Z,75.20
2019-03-20T05:33:21.714Z,74.90
2019-03-20T05:35:25.390Z,77.00
2019-03-20T05:37:29.072Z,78.20
2019-03-20T05:39:32.711Z,78.40
2019-03-20T05:41:36.447Z,77.70
2019-03-20T05:43:40.198Z,78.40
2019-03-20T05:45:44.003Z,78.10
2019-03-20T05:47:47.666Z,78.10
2019-03-20T05:49:51.396Z,79.30
2019-03-20T05:51:55.178Z,76.80
2019-03-20T05:53:58.853Z,75.80
2019-03-20T05:56:02.544Z,75.90
2019-03-20T05:58:06.316Z,75.50
2019-03-20T06:00:18.660Z,77.00
2019-03-20T06:02:22.312Z,76.90
2019-03-20T06:04:25.969Z,75.30
2019-03-20T06:06:29.819Z,75.60
2019-03-20T06:08:33.476Z,76.00
2019-03-20T06:10:37.146Z,74.90
2019-03-20T06:12:42.414Z,75.20
2019-03-20T06:14:46.107Z,76.30
2019-03-20T06:16:49.797Z,76.50
2019-03-20T06:18:53.471Z,77.10
2019-03-20T06:20:57.294Z,77.40
2019-03-20T06:23:00.975Z,77.10
2019-03-20T06:25:07.236Z,76.40
2019-03-20T06:27:10.925Z,77.60
2019-03-20T06:29:14.591Z,77.90
2019-03-20T06:31:18.904Z,76.60
2019-03-20T06:33:22.689Z,74.40
2019-03-20T06:35:26.350Z,75.00
2019-03-20T06:37:32.756Z,75.70
2019-03-20T06:39:35.490Z,74.70
2019-03-20T06:41:39.198Z,73.80
2019-03-20T06:43:42.914Z,72.50
2019-03-20T06:45:46.579Z,72.50
2019-03-20T06:47:50.399Z,73.20
2019-03-20T06:49:54.051Z,72.70
2019-03-20T06:51:57.723Z,71.70
2019-03-20T06:54:01.411Z,70.80
2019-03-20T06:56:05.562Z,71.50
2019-03-20T06:58:09.327Z,71.60
2019-03-20T07:00:41.824Z,72.00
2019-03-20T07:02:46.221Z,72.30
2019-03-20T07:05:04.763Z,71.80
2019-03-20T07:07:15.381Z,72.10
2019-03-20T07:09:37.299Z,71.40
2019-03-20T07:11:40.970Z,70.80
2019-03-20T07:13:44.674Z,70.00
2019-03-20T07:15:48.353Z,71.40
2019-03-20T07:17:52.124Z,72.70
2019-03-20T07:19:55.844Z,72.20
2019-03-20T07:21:59.602Z,71.60
2019-03-20T07:24:03.374Z,71.60
2019-03-20T07:26:07.034Z,70.40
2019-03-20T07:28:10.702Z,70.70
2019-03-20T07:30:15.877Z,70.10
2019-03-20T07:32:19.539Z,70.40
2019-03-20T07:34:23.230Z,69.70
2019-03-20T07:36:26.946Z,70.40
2019-03-20T07:38:30.602Z,69.40
2019-03-20T07:40:34.281Z,68.50
2019-03-20T07:42:37.943Z,70.50
2019-03-20T07:44:41.680Z,69.80
2019-03-20T07:46:45.335Z,69.50
2019-03-20T07:48:49.002Z,69.50
2019-03-20T07:50:52.682Z,69.70
2019-03-20T07:52:56.338Z,69.10
2019-03-20T07:55:00.092Z,69.70
2019-03-20T07:57:03.771Z,69.80
2019-03-20T07:59:07.441Z,69.40
2019-03-20T08:01:11.110Z,68.90
2019-03-20T08:03:14.788Z,68.60
2019-03-20T08:05:28.451Z,68.30
2019-03-20T08:07:23.874Z,68.00
2019-03-20T08:09:27.653Z,67.60
2019-03-20T08:11:31.395Z,67.40
2019-03-20T08:13:35.109Z,67.30
2019-03-20T08:15:38.790Z,67.20
2019-03-20T08:17:42.442Z,66.00
2019-03-20T08:19:46.101Z,66.00
2019-03-20T08:21:49.777Z,66.60
2019-03-20T08:23:53.446Z,66.00
2019-03-20T08:25:57.148Z,65.50
2019-03-20T08:28:00.814Z,65.50
2019-03-20T08:30:07.250Z,65.40
2019-03-20T08:32:10.927Z,65.40
2019-03-20T08:34:14.580Z,65.30
2019-03-20T08:36:18.266Z,65.20
2019-03-20T08:38:21.928Z,64.90
2019-03-20T08:40:25.595Z,64.70
2019-03-20T08:42:29.374Z,64.30
2019-03-20T08:44:33.028Z,62.10
2019-03-20T08:46:36.768Z,60.70
2019-03-20T08:48:40.444Z,61.50
2019-03-20T08:50:44.713Z,61.10
2019-03-20T08:52:48.390Z,60.70
2019-03-20T08:54:52.049Z,59.40
2019-03-20T08:56:55.721Z,58.50
2019-03-20T08:58:59.429Z,57.00
2019-03-20T09:01:03.183Z,55.00
2019-03-20T09:03:06.951Z,54.00
2019-03-20T09:05:12.106Z,55.10
2019-03-20T09:07:15.793Z,55.20
2019-03-20T09:09:19.442Z,56.30
2019-03-20T09:11:23.106Z,52.80
2019-03-20T09:13:26.778Z,53.70
2019-03-20T09:15:30.429Z,52.80
2019-03-20T09:17:34.111Z,53.20
2019-03-20T09:19:37.774Z,53.50
2019-03-20T09:21:41.601Z,51.90
2019-03-20T09:23:45.374Z,51.90
2019-03-20T09:25:49.049Z,51.60
2019-03-20T09:27:52.782Z,51.50
2019-03-20T09:29:56.447Z,53.10
2019-03-20T09:32:00.095Z,52.20
2019-03-20T09:34:03.898Z,52.20
2019-03-20T09:36:07.609Z,52.10
2019-03-20T09:38:11.413Z,51.00
2019-03-20T09:40:23.880Z,50.40
2019-03-20T09:42:27.707Z,49.80
2019-03-20T09:44:31.563Z,50.00
2019-03-20T09:46:35.560Z,49.80
2019-03-20T09:48:39.238Z,50.20
2019-03-20T09:50:42.992Z,51.20
2019-03-20T09:52:46.663Z,49.10
2019-03-20T09:54:50.364Z,49.80
2019-03-20T09:56:54.007Z,50.20
2019-03-20T09:58:57.709Z,49.50
2019-03-20T10:01:01.357Z,48.50
2019-03-20T10:03:05.038Z,48.60
2019-03-20T10:05:08.915Z,48.00
2019-03-20T10:07:12.574Z,47.80
2019-03-20T10:09:16.318Z,49.00
2019-03-20T10:11:19.977Z,49.30
2019-03-20T10:13:23.643Z,48.20
2019-03-20T10:15:29.402Z,48.60
2019-03-20T10:17:33.073Z,48.70
2019-03-20T10:19:36.723Z,48.60
2019-03-20T10:21:40.422Z,48.70
2019-03-20T10:23:44.151Z,49.20
2019-03-20T10:25:47.839Z,48.80
2019-03-20T10:27:52.070Z,49.70
2019-03-20T10:29:55.853Z,47.70
2019-03-20T10:31:59.506Z,47.40
2019-03-20T10:34:03.270Z,48.20
2019-03-20T10:36:06.955Z,48.50
2019-03-20T10:38:10.624Z,47.10
2019-03-20T10:40:15.989Z,47.70
2019-03-20T10:42:19.665Z,48.00
2019-03-20T10:44:23.345Z,47.10
2019-03-20T10:46:27.046Z,47.00
2019-03-20T10:48:30.864Z,48.00
2019-03-20T10:50:34.535Z,48.40
2019-03-20T10:52:38.221Z,47.70
2019-03-20T10:54:41.884Z,49.20
2019-03-20T10:56:45.566Z,49.00
2019-03-20T10:58:49.240Z,48.90
2019-03-20T11:00:52.931Z,49.60
2019-03-20T11:02:56.589Z,48.50
2019-03-20T11:05:00.373Z,48.60
2019-03-20T11:07:04.197Z,48.50
2019-03-20T11:09:17.736Z,49.80
2019-03-20T11:11:13.457Z,48.30
2019-03-20T11:13:17.124Z,49.60
2019-03-20T11:15:22.543Z,48.70
2019-03-20T11:17:26.235Z,50.30
2019-03-20T11:19:29.931Z,49.80
2019-03-20T11:21:33.614Z,49.20
2019-03-20T11:23:37.267Z,46.70
2019-03-20T11:25:40.925Z,46.60
2019-03-20T11:27:44.635Z,46.30
2019-03-20T11:29:48.291Z,47.00
2019-03-20T11:31:51.983Z,47.40
2019-03-20T11:33:55.661Z,46.40
2019-03-20T11:35:59.321Z,47.30
2019-03-20T11:38:03.010Z,47.20
2019-03-20T11:40:18.403Z,48.90
2019-03-20T11:42:22.069Z,49.80
2019-03-20T11:44:25.755Z,49.10
2019-03-20T11:46:29.723Z,47.50
2019-03-20T11:48:33.596Z,47.10
2019-03-20T11:50:39.061Z,47.20
2019-03-20T11:52:42.878Z,47.30
2019-03-20T11:54:46.562Z,48.00
2019-03-20T11:56:50.229Z,47.80
2019-03-20T11:58:53.918Z,47.50
2019-03-20T12:00:57.575Z,47.60
2019-03-20T12:03:01.268Z,47.80
2019-03-20T12:05:06.234Z,47.70
2019-03-20T12:07:09.891Z,48.20
2019-03-20T12:09:13.571Z,48.00
2019-03-20T12:11:17.243Z,47.20
2019-03-20T12:13:20.950Z,46.30
2019-03-20T12:15:24.708Z,46.60
2019-03-20T12:17:28.412Z,46.90
2019-03-20T12:19:32.090Z,46.20
2019-03-20T12:21:35.755Z,46.10
2019-03-20T12:23:39.454Z,47.30
2019-03-20T12:25:43.148Z,47.10
2019-03-20T12:27:46.812Z,47.10
2019-03-20T12:29:50.499Z,46.10
2019-03-20T12:31:54.172Z,48.30
2019-03-20T12:33:58.257Z,46.80
2019-03-20T12:36:01.927Z,46.10
2019-03-20T12:38:14.321Z,47.50
2019-03-20T12:40:19.465Z,47.40
2019-03-20T12:42:23.241Z,46.80
2019-03-20T12:44:26.882Z,47.10
2019-03-20T12:46:40.953Z,47.70
2019-03-20T12:48:35.968Z,47.10
2019-03-20T12:50:39.727Z,47.70
2019-03-20T12:52:43.409Z,46.40
2019-03-20T12:54:47.196Z,47.90
2019-03-20T12:56:51.166Z,46.70
2019-03-20T12:58:54.840Z,46.90
2019-03-20T13:00:58.526Z,47.60
2019-03-20T13:03:02.183Z,46.20
2019-03-20T13:05:08.835Z,46.10
2019-03-20T13:07:12.494Z,46.20
2019-03-20T13:09:17.831Z,46.50
2019-03-20T13:11:21.522Z,47.10
2019-03-20T13:13:25.208Z,46.70
2019-03-20T13:15:29.177Z,46.10
2019-03-20T13:17:32.881Z,46.00
2019-03-20T13:19:36.536Z,46.60
2019-03-20T13:21:40.235Z,46.70
2019-03-20T13:23:43.977Z,46.60
2019-03-20T13:25:47.681Z,45.60
2019-03-20T13:27:51.368Z,45.70
2019-03-20T13:29:55.118Z,46.20
2019-03-20T13:31:58.810Z,46.90
2019-03-20T13:34:02.487Z,46.20
2019-03-20T13:36:06.948Z,47.00
2019-03-20T13:38:10.629Z,45.30
2019-03-20T13:40:14.927Z,45.60
2019-03-20T13:42:18.782Z,45.70
2019-03-20T13:44:22.438Z,45.70
2019-03-20T13:46:26.136Z,44.80
2019-03-20T13:48:29.895Z,44.80
2019-03-20T13:50:33.602Z,46.10
2019-03-20T13:52:37.283Z,46.50
2019-03-20T13:54:40.961Z,45.80
2019-03-20T13:56:44.617Z,45.40
2019-03-20T13:58:48.309Z,45.10
2019-03-20T14:00:51.973Z,46.20
2019-03-20T14:02:55.655Z,46.20
2019-03-20T14:04:59.323Z,45.10
2019-03-20T14:07:03.047Z,45.60
2019-03-20T14:09:07.966Z,46.50
2019-03-20T14:11:11.615Z,46.90
2019-03-20T14:13:15.297Z,46.00
2019-03-20T14:15:19.480Z,45.20
2019-03-20T14:17:23.279Z,45.20
2019-03-20T14:19:26.948Z,46.30
2019-03-20T14:21:30.597Z,46.40
2019-03-20T14:23:34.279Z,46.80
2019-03-20T14:25:37.997Z,46.70
2019-03-20T14:27:41.673Z,46.20
2019-03-20T14:29:45.328Z,46.50
2019-03-20T14:31:48.990Z,47.50
2019-03-20T14:33:52.680Z,47.00
2019-03-20T14:35:56.331Z,45.50
2019-03-20T14:37:59.990Z,46.10
2019-03-20T14:40:05.084Z,46.20
2019-03-20T14:42:08.741Z,46.00
2019-03-20T14:44:12.427Z,46.40
2019-03-20T14:46:16.090Z,45.10
2019-03-20T14:48:19.809Z,46.00
2019-03-20T14:50:30.647Z,45.60
2019-03-20T14:52:34.334Z,44.70
2019-03-20T14:54:38.043Z,44.40
2019-03-20T14:56:41.726Z,45.30
2019-03-20T14:58:45.822Z,45.90
2019-03-20T15:00:49.600Z,45.20
2019-03-20T15:02:53.280Z,45.20
2019-03-20T15:04:57.049Z,44.90
2019-03-20T15:07:00.853Z,44.10
2019-03-20T15:09:06.689Z,45.70
2019-03-20T15:11:10.354Z,46.60
2019-03-20T15:13:14.071Z,46.30
2019-03-20T15:15:40.251Z,46.90
2019-03-20T15:17:43.911Z,47.00
2019-03-20T15:19:47.580Z,46.00
2019-03-20T15:21:51.251Z,45.80
2019-03-20T15:23:54.919Z,45.70
2019-03-20T15:25:58.614Z,45.50
2019-03-20T15:28:02.266Z,45.00
2019-03-20T15:30:08.884Z,45.10
2019-03-20T15:32:12.563Z,44.90
2019-03-20T15:34:16.232Z,44.80
2019-03-20T15:36:20.088Z,44.60
2019-03-20T15:38:23.746Z,43.70
2019-03-20T15:40:29.183Z,43.10
2019-03-20T15:42:32.874Z,42.50
2019-03-20T15:44:36.541Z,43.20
2019-03-20T15:46:40.239Z,42.40
2019-03-20T15:48:43.904Z,43.50
2019-03-20T15:50:47.621Z,43.40
2019-03-20T15:52:51.327Z,43.40
2019-03-20T15:54:54.989Z,43.60
2019-03-20T15:56:58.675Z,44.00
2019-03-20T15:59:02.363Z,43.30
2019-03-20T16:01:06.008Z,43.30
2019-03-20T16:03:35.187Z,43.60
2019-03-20T16:05:38.837Z,43.80
2019-03-20T16:07:42.607Z,42.80
2019-03-20T16:09:46.259Z,43.40
2019-03-20T16:11:49.926Z,43.30
2019-03-20T16:13:53.609Z,43.50
2019-03-20T16:15:57.277Z,43.70
2019-03-20T16:18:00.994Z,43.80
2019-03-20T16:20:07.597Z,43.60
2019-03-20T16:22:11.261Z,43.20
2019-03-20T16:24:14.942Z,43.50
2019-03-20T16:26:18.602Z,43.40
2019-03-20T16:28:22.282Z,42.90
2019-03-20T16:30:30.093Z,43.70
2019-03-20T16:32:33.752Z,43.40
2019-03-20T16:34:37.452Z,43.10
2019-03-20T16:36:41.114Z,43.50
2019-03-20T16:38:44.809Z,44.20
2019-03-20T16:40:48.550Z,43.70
2019-03-20T16:42:52.250Z,44.30
2019-03-20T16:44:55.930Z,43.60
2019-03-20T16:46:59.605Z,44.80
2019-03-20T16:49:03.406Z,43.80
2019-03-20T16:51:07.066Z,44.20
2019-03-20T16:53:10.730Z,44.70
2019-03-20T16:55:15.710Z,43.90
2019-03-20T16:57:19.387Z,43.90
2019-03-20T16:59:23.060Z,43.50
2019-03-20T17:01:26.770Z,43.80
2019-03-20T17:03:30.459Z,43.90
2019-03-20T17:05:34.132Z,43.70
2019-03-20T17:07:37.800Z,44.60
2019-03-20T17:09:41.570Z,43.20
2019-03-20T17:11:45.274Z,43.50
2019-03-20T17:13:48.965Z,43.70
2019-03-20T17:15:52.785Z,43.90
2019-03-20T17:17:56.430Z,44.00
2019-03-20T17:20:00.122Z,44.20
2019-03-20T17:22:03.837Z,43.50
2019-03-20T17:24:07.490Z,43.90
2019-03-20T17:26:11.195Z,44.10
2019-03-20T17:28:14.869Z,45.60
2019-03-20T17:30:38.111Z,44.00
2019-03-20T17:32:41.756Z,45.40
2019-03-20T17:34:45.430Z,46.90
2019-03-20T17:36:49.119Z,47.10
2019-03-20T17:38:52.988Z,47.60
2019-03-20T17:40:56.667Z,47.40
2019-03-20T17:43:00.341Z,47.20
2019-03-20T17:45:05.941Z,47.30
2019-03-20T17:47:09.681Z,48.40
2019-03-20T17:49:13.350Z,49.90
2019-03-20T17:51:17.052Z,50.30
2019-03-20T17:53:20.717Z,50.70
2019-03-20T17:55:24.393Z,50.80
2019-03-20T17:57:28.229Z,50.20
2019-03-20T17:59:31.947Z,50.80
2019-03-20T18:01:35.655Z,50.60
2019-03-20T18:03:39.322Z,51.60
2019-03-20T18:05:42.987Z,51.30
2019-03-20T18:07:46.681Z,50.60
2019-03-20T18:09:50.335Z,48.60
2019-03-20T18:11:54.042Z,48.90
2019-03-20T18:13:57.704Z,49.20
2019-03-20T18:16:01.466Z,50.00
2019-03-20T18:18:06.353Z,51.20
2019-03-20T18:20:12.896Z,51.00
2019-03-20T18:22:16.620Z,50.60
2019-03-20T18:24:23.553Z,51.20
2019-03-20T18:26:27.174Z,51.90
2019-03-20T18:28:30.860Z,52.40
2019-03-20T18:30:36.727Z,52.40
2019-03-20T18:32:40.425Z,52.10
2019-03-20T18:34:44.085Z,52.80
2019-03-20T18:36:47.802Z,53.50
2019-03-20T18:38:51.490Z,54.00
2019-03-20T18:40:55.145Z,54.20
2019-03-20T18:42:59.099Z,54.50
2019-03-20T18:45:02.853Z,55.30
2019-03-20T18:47:06.509Z,54.20
2019-03-20T18:49:10.196Z,55.00
2019-03-20T18:51:13.974Z,55.60
2019-03-20T18:53:17.662Z,55.70
2019-03-20T18:55:21.543Z,55.40
2019-03-20T18:57:25.282Z,55.50
2019-03-20T18:59:29.007Z,54.90
2019-03-20T19:01:32.666Z,55.50
2019-03-20T19:03:39.296Z,54.90
2019-03-20T19:05:51.447Z,55.40
2019-03-20T19:07:55.354Z,55.70
2019-03-20T19:09:59.121Z,56.20
2019-03-20T19:12:08.431Z,56.20
2019-03-20T19:14:08.281Z,56.10
2019-03-20T19:16:11.981Z,56.60
2019-03-20T19:18:15.725Z,57.00
2019-03-20T19:20:20.027Z,58.30
2019-03-20T19:22:23.807Z,58.70
2019-03-20T19:24:27.588Z,58.70
2019-03-20T19:26:31.251Z,58.50
2019-03-20T19:28:34.931Z,58.30
2019-03-20T19:30:38.610Z,58.40
2019-03-20T19:32:42.261Z,58.80
2019-03-20T19:34:46.055Z,59.10
2019-03-20T19:36:49.726Z,59.10
2019-03-20T19:38:53.376Z,59.00
2019-03-20T19:40:57.099Z,59.20
2019-03-20T19:43:00.738Z,59.50
2019-03-20T19:45:06.822Z,59.50
2019-03-20T19:47:10.589Z,59.70
2019-03-20T19:49:14.321Z,59.10
2019-03-20T19:51:18.019Z,58.90
2019-03-20T19:53:21.691Z,58.80
2019-03-20T19:55:25.359Z,58.80
2019-03-20T19:57:29.033Z,58.80
2019-03-20T19:59:32.703Z,58.70
2019-03-20T20:01:36.406Z,58.40
2019-03-20T20:03:40.069Z,58.60
2019-03-20T20:05:43.758Z,58.70
2019-03-20T20:07:47.426Z,58.80
2019-03-20T20:09:51.223Z,58.90
2019-03-20T20:11:54.918Z,59.30
2019-03-20T20:13:58.572Z,59.20
2019-03-20T20:16:02.281Z,59.80
2019-03-20T20:18:05.947Z,59.80
2019-03-20T20:20:14.903Z,59.70
2019-03-20T20:22:18.639Z,59.70
2019-03-20T20:24:22.318Z,59.50
2019-03-20T20:26:26.016Z,59.80
2019-03-20T20:28:29.665Z,59.60
2019-03-20T20:30:33.406Z,60.10
2019-03-20T20:32:37.075Z,60.10
2019-03-20T20:34:40.760Z,59.50
2019-03-20T20:36:44.510Z,59.80
2019-03-20T20:38:49.072Z,59.40
2019-03-20T20:40:53.613Z,59.30
2019-03-20T20:42:57.292Z,59.30
2019-03-20T20:45:00.949Z,58.70
2019-03-20T20:47:04.641Z,59.00
2019-03-20T20:49:08.354Z,58.90
2019-03-20T20:51:12.056Z,58.90
2019-03-20T20:53:15.734Z,59.20
2019-03-20T20:55:22.854Z,58.70
2019-03-20T20:57:26.683Z,59.40
2019-03-20T20:59:30.354Z,59.80
2019-03-20T21:01:34.014Z,60.00
2019-03-20T21:03:37.694Z,59.70
2019-03-20T21:05:41.367Z,59.40
2019-03-20T21:07:45.047Z,59.50
2019-03-20T21:09:48.779Z,59.60
2019-03-20T21:11:52.453Z,59.20
2019-03-20T21:13:56.127Z,59.70
2019-03-20T21:15:59.800Z,59.30
2019-03-20T21:18:15.121Z,60.00
2019-03-20T21:20:18.835Z,59.70
2019-03-20T21:22:34.176Z,60.00
2019-03-20T21:24:37.865Z,60.20
2019-03-20T21:26:53.334Z,60.20
2019-03-20T21:29:34.735Z,60.00
2019-03-20T21:31:43.344Z,60.50
2019-03-20T21:34:15.751Z,61.10
2019-03-20T21:36:55.629Z,60.80
2019-03-20T21:38:59.327Z,60.40
2019-03-20T21:41:21.126Z,61.10
2019-03-20T21:43:56.707Z,61.40
2019-03-20T21:46:08.964Z,61.30
2019-03-20T21:48:12.691Z,61.60
2019-03-20T21:50:40.413Z,61.50
2019-03-20T21:52:44.083Z,61.60
2019-03-20T21:55:02.382Z,61.60
2019-03-20T21:57:31.221Z,61.40
2019-03-20T22:00:10.839Z,61.60
2019-03-20T22:02:43.513Z,61.40
2019-03-20T22:04:47.287Z,61.50
2019-03-20T22:07:09.079Z,61.80
2019-03-20T22:09:14.556Z,61.90
2019-03-20T22:11:32.613Z,61.50
2019-03-20T22:13:41.783Z,61.40
2019-03-20T22:16:15.306Z,61.30
2019-03-20T22:18:33.691Z,61.20
2019-03-20T22:20:40.562Z,61.20
2019-03-20T22:22:56.033Z,61.30
2019-03-20T22:25:23.148Z,61.30
2019-03-20T22:27:48.028Z,61.20
2019-03-20T22:29:51.693Z,61.50
2019-03-20T22:32:24.904Z,62.30
2019-03-20T22:34:37.479Z,62.50
2019-03-20T22:36:41.163Z,62.30
2019-03-20T22:38:56.522Z,62.30
2019-03-20T22:41:17.978Z,62.30
2019-03-20T22:43:30.245Z,61.30
2019-03-20T22:46:06.235Z,60.90
2019-03-20T22:48:30.573Z,61.40
2019-03-20T22:50:40.262Z,62.00
2019-03-20T22:52:52.401Z,62.60
2019-03-20T22:55:13.875Z,62.70
2019-03-20T22:57:31.583Z,62.90
2019-03-20T22:59:35.244Z,62.90
2019-03-20T23:01:56.667Z,62.90
2019-03-20T23:04:06.236Z,62.50
2019-03-20T23:06:09.885Z,62.10
2019-03-20T23:08:13.884Z,62.00
2019-03-20T23:10:17.957Z,61.80
2019-03-20T23:12:21.662Z,61.40
2019-03-20T23:14:25.318Z,60.70
2019-03-20T23:16:28.977Z,60.60
2019-03-20T23:18:32.668Z,61.10
2019-03-20T23:20:36.338Z,61.60
2019-03-20T23:22:40.027Z,61.60
2019-03-20T23:24:44.082Z,61.50
2019-03-20T23:26:47.730Z,61.50
2019-03-20T23:28:51.408Z,61.30
2019-03-20T23:30:55.074Z,61.00
2019-03-20T23:32:58.742Z,60.90
2019-03-20T23:35:02.406Z,60.50
2019-03-20T23:37:06.060Z,60.60
2019-03-20T23:39:09.741Z,60.30
2019-03-20T23:41:13.407Z,61.10
2019-03-20T23:43:17.093Z,60.90
2019-03-20T23:45:20.879Z,61.30
2019-03-20T23:47:27.462Z,62.20
2019-03-20T23:49:31.437Z,62.40
2019-03-20T23:51:36.519Z,62.60
2019-03-20T23:53:43.501Z,62.60
2019-03-20T23:55:47.160Z,62.30
2019-03-20T23:57:50.833Z,62.10
2019-03-20T23:59:54.801Z,61.70
